createdAt,value
2023-04-19T00:00:12.248Z,14.93
2023-04-19T00:02:40.390Z,18.08
2023-04-19T00:05:08.633Z,16.65
2023-04-19T00:07:35.367Z,17.38
2023-04-19T00:10:02.022Z,16.48
2023-04-19T00:12:28.462Z,17.55
2023-04-19T00:14:54.854Z,16.85
2023-04-19T00:17:21.441Z,16.88
2023-04-19T00:19:48.144Z,17.65
2023-04-19T00:22:14.672Z,17.92
2023-04-19T00:24:41.120Z,15.55
2023-04-19T00:27:07.737Z,15.07
2023-04-19T00:29:34.160Z,15.77
2023-04-19T00:32:00.701Z,20.17
2023-04-19T00:34:27.292Z,20.55
2023-04-19T00:36:56.330Z,18.73
2023-04-19T00:39:22.762Z,16.42
2023-04-19T00:41:49.220Z,19.40
2023-04-19T00:44:18.506Z,17.50
2023-04-19T00:46:45.412Z,16.83
2023-04-19T00:49:12.117Z,15.48
2023-04-19T00:51:38.680Z,18.25
2023-04-19T00:54:05.477Z,16.77
2023-04-19T00:56:34.312Z,16.38
2023-04-19T00:59:00.993Z,18.80
2023-04-19T01:01:27.706Z,16.38
2023-04-19T01:03:54.536Z,17.50
2023-04-19T01:06:21.241Z,19.08
2023-04-19T01:08:48.078Z,18.58
2023-04-19T01:11:14.642Z,18.33
2023-04-19T01:13:41.539Z,17.77
2023-04-19T01:16:08.078Z,19.83
2023-04-19T01:18:37.464Z,19.08
2023-04-19T01:21:04.898Z,21.77
2023-04-19T01:23:31.573Z,19.13
2023-04-19T01:25:58.081Z,18.33
2023-04-19T01:28:25.375Z,16.90
2023-04-19T01:30:53.753Z,18.05
2023-04-19T01:33:21.184Z,18.35
2023-04-19T01:35:48.320Z,17.05
2023-04-19T01:38:15.995Z,16.67
2023-04-19T01:40:42.795Z,18.23
2023-04-19T01:43:13.013Z,20.27
2023-04-19T01:45:39.583Z,20.00
2023-04-19T01:48:06.436Z,16.60
2023-04-19T01:50:34.246Z,17.48
2023-04-19T01:53:00.747Z,16.70
2023-04-19T01:55:27.283Z,18.63
2023-04-19T01:57:54.826Z,16.70
2023-04-19T02:00:22.032Z,17.02
2023-04-19T02:02:48.867Z,19.60
2023-04-19T02:05:15.729Z,18.50
2023-04-19T02:07:42.269Z,18.75
2023-04-19T02:10:10.851Z,18.95
2023-04-19T02:12:37.691Z,20.55
2023-04-19T02:15:04.879Z,18.33
2023-04-19T02:17:31.597Z,21.95
2023-04-19T02:19:59.888Z,17.23
2023-04-19T02:22:26.952Z,19.27
2023-04-19T02:24:53.819Z,19.25
2023-04-19T02:27:27.082Z,19.05
2023-04-19T02:29:54.257Z,18.90
2023-04-19T02:32:20.791Z,19.95
2023-04-19T02:34:47.308Z,18.58
2023-04-19T02:37:13.730Z,20.17
2023-04-19T02:39:42.488Z,22.10
2023-04-19T02:42:08.984Z,21.85
2023-04-19T02:44:35.464Z,22.67
2023-04-19T02:47:01.956Z,20.20
2023-04-19T02:49:33.025Z,25.42
2023-04-19T02:51:59.741Z,20.13
2023-04-19T02:54:26.322Z,19.67
2023-04-19T02:56:52.861Z,18.83
2023-04-19T02:59:19.313Z,19.30
2023-04-19T03:01:46.113Z,19.88
2023-04-19T03:04:13.121Z,20.00
2023-04-19T03:06:41.821Z,21.05
2023-04-19T03:09:08.278Z,21.70
2023-04-19T03:11:35.722Z,21.05
2023-04-19T03:14:02.551Z,19.13
2023-04-19T03:16:30.192Z,20.10
2023-04-19T03:18:56.728Z,21.58
2023-04-19T03:21:29.060Z,20.77
2023-04-19T03:23:56.074Z,18.95
2023-04-19T03:26:24.438Z,21.40
2023-04-19T03:28:53.339Z,21.25
2023-04-19T03:31:41.882Z,24.77
2023-04-19T03:34:11.786Z,19.83
2023-04-19T03:36:42.333Z,20.90
2023-04-19T03:39:08.814Z,21.13
2023-04-19T03:41:37.058Z,21.05
2023-04-19T03:44:25.904Z,23.77
2023-04-19T03:46:53.406Z,20.83
2023-04-19T03:49:23.876Z,23.30
2023-04-19T03:51:57.773Z,20.73
2023-04-19T03:54:24.345Z,23.15
2023-04-19T03:56:50.792Z,21.90
2023-04-19T03:59:17.815Z,20.27
2023-04-19T04:01:44.593Z,23.50
2023-04-19T04:04:12.700Z,19.80
2023-04-19T04:06:39.816Z,20.55
2023-04-19T04:09:06.630Z,21.73
2023-04-19T04:11:33.158Z,19.25
2023-04-19T04:14:00.180Z,23.27
2023-04-19T04:16:29.092Z,20.83
2023-04-19T04:18:55.978Z,21.73
2023-04-19T04:21:26.934Z,21.60
2023-04-19T04:23:54.883Z,19.48
2023-04-19T04:26:33.950Z,19.98
2023-04-19T04:29:11.759Z,22.58
2023-04-19T04:31:40.293Z,23.20
2023-04-19T04:34:09.090Z,22.50
2023-04-19T04:36:38.973Z,22.98
2023-04-19T04:39:10.205Z,23.15
2023-04-19T04:41:36.675Z,23.73
2023-04-19T04:44:12.594Z,19.88
2023-04-19T04:46:40.545Z,21.05
2023-04-19T04:49:07.740Z,19.20
2023-04-19T04:51:34.869Z,19.38
2023-04-19T04:54:01.600Z,18.17
2023-04-19T04:56:28.361Z,20.10
2023-04-19T04:58:54.950Z,19.10
2023-04-19T05:01:28.099Z,19.80
2023-04-19T05:03:54.746Z,17.80
2023-04-19T05:06:21.331Z,18.08
2023-04-19T05:08:47.768Z,19.38
2023-04-19T05:11:20.508Z,17.92
2023-04-19T05:13:47.365Z,18.60
2023-04-19T05:16:13.890Z,20.75
2023-04-19T05:18:43.438Z,17.88
2023-04-19T05:21:10.443Z,18.85
2023-04-19T05:23:38.391Z,19.02
2023-04-19T05:26:05.575Z,19.95
2023-04-19T05:28:32.264Z,20.77
2023-04-19T05:31:09.692Z,19.75
2023-04-19T05:33:44.430Z,18.45
2023-04-19T05:36:11.113Z,18.83
2023-04-19T05:38:37.573Z,17.15
2023-04-19T05:41:06.344Z,15.20
2023-04-19T05:43:32.825Z,17.08
2023-04-19T05:45:59.877Z,16.95
2023-04-19T05:48:26.428Z,19.58
2023-04-19T05:53:43.253Z,20.75
2023-04-19T05:56:09.737Z,19.17
2023-04-19T05:58:36.665Z,20.60
2023-04-19T06:01:04.418Z,18.17
2023-04-19T06:03:32.255Z,18.95
2023-04-19T06:06:00.305Z,18.02
2023-04-19T06:08:26.822Z,19.45
2023-04-19T06:11:00.140Z,21.55
2023-04-19T06:13:31.678Z,20.45
2023-04-19T06:15:58.209Z,21.80
2023-04-19T06:18:24.770Z,19.55
2023-04-19T06:20:53.192Z,19.50
2023-04-19T06:23:20.028Z,19.40
2023-04-19T06:25:48.673Z,19.10
2023-04-19T06:28:15.733Z,21.10
2023-04-19T06:30:42.247Z,20.45
2023-04-19T06:33:08.664Z,21.45
2023-04-19T06:35:35.198Z,21.65
2023-04-19T06:38:01.804Z,19.67
2023-04-19T06:40:31.704Z,18.90
2023-04-19T06:42:58.157Z,19.50
2023-04-19T06:45:24.550Z,17.98
2023-04-19T06:47:51.373Z,18.40
2023-04-19T06:50:18.128Z,19.52
2023-04-19T06:52:44.603Z,18.77
2023-04-19T06:55:11.620Z,18.00
2023-04-19T06:57:38.499Z,18.55
2023-04-19T07:00:06.750Z,18.30
2023-04-19T07:02:33.333Z,18.17
2023-04-19T07:04:59.790Z,17.50
2023-04-19T07:07:26.243Z,19.60
2023-04-19T07:09:52.676Z,18.80
2023-04-19T07:12:19.132Z,18.00
2023-04-19T07:14:45.700Z,17.30
2023-04-19T07:17:13.749Z,17.63
2023-04-19T07:19:40.194Z,17.95
2023-04-19T07:22:06.626Z,17.70
2023-04-19T07:24:33.144Z,16.42
2023-04-19T07:26:59.862Z,17.13
2023-04-19T07:29:26.611Z,16.67
2023-04-19T07:31:55.313Z,15.23
2023-04-19T07:34:21.917Z,16.50
2023-04-19T07:36:48.356Z,17.88
2023-04-19T07:39:14.839Z,14.73
2023-04-19T07:41:41.281Z,15.00
2023-04-19T07:44:07.757Z,15.60
2023-04-19T07:46:34.259Z,16.52
2023-04-19T07:49:00.765Z,13.75
2023-04-19T07:51:27.469Z,15.32
2023-04-19T07:53:54.100Z,13.80
2023-04-19T07:56:22.325Z,14.20
2023-04-19T07:59:00.216Z,14.75
2023-04-19T08:01:27.268Z,14.88
2023-04-19T08:03:54.043Z,16.27
2023-04-19T08:06:21.735Z,13.50
2023-04-19T08:08:50.076Z,12.90
2023-04-19T08:11:16.703Z,14.00
2023-04-19T08:13:48.707Z,13.73
2023-04-19T08:17:05.923Z,12.23
2023-04-19T08:19:09.434Z,11.75
2023-04-19T08:21:41.093Z,12.48
2023-04-19T08:24:08.271Z,14.23
2023-04-19T08:26:34.965Z,14.95
2023-04-19T08:29:01.593Z,14.00
2023-04-19T08:31:28.055Z,12.52
2023-04-19T08:33:54.564Z,14.27
2023-04-19T08:36:28.882Z,10.57
2023-04-19T08:39:06.893Z,13.45
2023-04-19T08:41:37.200Z,12.48
2023-04-19T08:44:04.976Z,12.65
2023-04-19T08:46:32.371Z,12.60
2023-04-19T08:48:59.549Z,16.83
2023-04-19T08:51:27.750Z,13.23
2023-04-19T08:53:56.498Z,14.05
2023-04-19T08:59:03.827Z,14.90
2023-04-19T09:01:35.855Z,18.73
2023-04-19T09:04:31.837Z,12.55
2023-04-19T09:06:54.922Z,12.63
2023-04-19T09:11:58.132Z,13.50
2023-04-19T09:14:26.277Z,13.45
2023-04-19T09:16:52.719Z,13.13
2023-04-19T09:19:24.680Z,14.40
2023-04-19T09:21:53.902Z,14.38
2023-04-19T09:25:14.516Z,13.30
2023-04-19T09:27:30.408Z,15.05
2023-04-19T09:32:24.655Z,14.00
2023-04-19T09:34:56.868Z,14.05
2023-04-19T09:39:53.792Z,15.63
2023-04-19T09:42:35.951Z,60.33
2023-04-19T09:47:36.956Z,19.45
2023-04-19T09:50:22.596Z,11.85
2023-04-19T09:52:50.182Z,13.70
2023-04-19T09:55:26.784Z,11.23
2023-04-19T09:57:54.987Z,12.75
2023-04-19T10:00:22.793Z,13.55
2023-04-19T10:02:57.851Z,15.30
2023-04-19T10:05:25.777Z,14.70
2023-04-19T10:07:55.662Z,16.83
2023-04-19T10:10:40.427Z,15.95
2023-04-19T10:13:19.829Z,14.77
2023-04-19T10:15:53.652Z,16.73
2023-04-19T10:18:22.895Z,15.25
2023-04-19T10:20:58.282Z,13.90
2023-04-19T10:23:25.053Z,13.05
2023-04-19T10:25:57.249Z,12.25
2023-04-19T10:28:23.821Z,12.20
2023-04-19T10:31:12.880Z,13.07
2023-04-19T10:33:40.444Z,13.25
2023-04-19T10:36:14.054Z,12.68
2023-04-19T10:38:47.738Z,13.60
2023-04-19T10:41:17.524Z,18.10
2023-04-19T10:44:11.454Z,14.17
2023-04-19T10:46:41.948Z,13.43
2023-04-19T10:49:09.829Z,13.07
2023-04-19T10:51:43.317Z,13.43
2023-04-19T10:54:32.344Z,10.75
2023-04-19T10:57:04.951Z,10.48
2023-04-19T10:59:36.509Z,12.95
2023-04-19T11:02:22.342Z,11.68
2023-04-19T11:04:48.879Z,11.85
2023-04-19T11:07:15.532Z,13.15
2023-04-19T11:09:45.789Z,12.68
2023-04-19T11:12:14.321Z,11.45
2023-04-19T11:14:46.233Z,11.38
2023-04-19T11:17:25.149Z,12.05
2023-04-19T11:19:59.597Z,12.20
2023-04-19T11:22:27.024Z,14.32
2023-04-19T11:24:53.458Z,14.52
2023-04-19T11:27:21.046Z,13.65
2023-04-19T11:29:47.836Z,12.45
2023-04-19T11:32:14.334Z,13.07
2023-04-19T11:34:41.338Z,12.60
2023-04-19T11:37:09.601Z,13.55
2023-04-19T11:39:45.492Z,18.25
2023-04-19T11:42:19.732Z,13.25
2023-04-19T11:44:50.756Z,16.23
2023-04-19T11:47:17.816Z,16.15
2023-04-19T11:49:44.396Z,15.20
2023-04-19T11:52:10.864Z,15.95
2023-04-19T11:54:37.348Z,17.25
2023-04-19T11:57:06.011Z,15.68
2023-04-19T11:59:35.053Z,17.20
2023-04-19T12:02:12.589Z,18.45
2023-04-19T12:04:39.782Z,15.23
2023-04-19T12:07:07.036Z,18.48
2023-04-19T12:09:36.939Z,17.23
2023-04-19T12:12:03.749Z,20.90
2023-04-19T12:14:31.468Z,20.40
2023-04-19T12:17:12.338Z,20.25
2023-04-19T12:19:47.937Z,20.77
2023-04-19T12:22:17.233Z,20.80
2023-04-19T12:24:43.804Z,22.20
2023-04-19T12:27:11.281Z,22.25
2023-04-19T12:29:38.926Z,25.92
2023-04-19T12:32:06.013Z,25.50
2023-04-19T12:34:32.566Z,20.10
2023-04-19T12:36:59.086Z,19.27
2023-04-19T12:39:25.726Z,20.42
2023-04-19T12:41:52.331Z,24.20
2023-04-19T12:44:18.806Z,22.45
2023-04-19T12:46:45.285Z,23.23
2023-04-19T12:49:11.777Z,20.95
2023-04-19T12:51:38.317Z,19.02
2023-04-19T12:54:04.871Z,22.58
2023-04-19T12:56:31.346Z,23.92
2023-04-19T12:58:57.809Z,21.67
2023-04-19T13:01:24.271Z,21.20
2023-04-19T13:03:50.840Z,22.85
2023-04-19T13:06:17.684Z,31.60
2023-04-19T13:08:47.465Z,20.13
2023-04-19T13:11:15.693Z,19.05
2023-04-19T13:13:42.148Z,22.25
2023-04-19T13:16:08.900Z,24.38
2023-04-19T13:18:35.415Z,21.27
2023-04-19T13:21:01.911Z,21.42
2023-04-19T13:23:28.378Z,22.05
2023-04-19T13:25:54.818Z,21.10
2023-04-19T13:28:21.306Z,19.48
2023-04-19T13:30:47.814Z,20.85
2023-04-19T13:33:14.295Z,16.33
2023-04-19T13:35:40.744Z,17.50
2023-04-19T13:38:07.423Z,18.55
2023-04-19T13:40:33.995Z,18.40
2023-04-19T13:43:01.132Z,21.13
2023-04-19T13:45:27.623Z,18.52
2023-04-19T13:47:54.082Z,17.40
2023-04-19T13:50:20.974Z,17.95
2023-04-19T13:52:47.404Z,17.23
2023-04-19T13:55:13.859Z,17.38
2023-04-19T13:57:40.378Z,15.35
2023-04-19T14:00:07.486Z,14.93
2023-04-19T14:02:34.754Z,17.50
2023-04-19T14:05:01.260Z,17.30
2023-04-19T14:07:27.724Z,15.38
2023-04-19T14:09:54.176Z,14.05
2023-04-19T14:12:20.899Z,13.85
2023-04-19T14:14:47.322Z,39.28
2023-04-19T14:17:13.745Z,23.42
2023-04-19T14:19:40.156Z,21.02
2023-04-19T14:22:06.620Z,16.15
2023-04-19T14:24:33.077Z,20.90
2023-04-19T14:27:10.261Z,16.15
2023-04-19T14:29:38.294Z,13.48
2023-04-19T14:32:16.991Z,15.27
2023-04-19T14:34:51.441Z,17.98
2023-04-19T14:37:18.717Z,16.67
2023-04-19T14:39:46.065Z,14.60
2023-04-19T14:42:12.581Z,13.52
2023-04-19T14:44:39.589Z,16.63
2023-04-19T14:47:06.119Z,14.32
2023-04-19T14:49:32.505Z,13.13
2023-04-19T14:51:58.932Z,15.75
2023-04-19T14:54:25.482Z,15.68
2023-04-19T14:56:52.645Z,14.43
2023-04-19T14:59:19.052Z,14.82
2023-04-19T15:01:45.622Z,13.45
2023-04-19T15:04:12.273Z,15.55
2023-04-19T15:06:38.860Z,13.10
2023-04-19T15:09:05.299Z,12.48
2023-04-19T15:11:31.836Z,12.65
2023-04-19T15:13:58.442Z,11.68
2023-04-19T15:16:24.945Z,12.07
2023-04-19T15:18:52.090Z,13.45
2023-04-19T15:21:24.634Z,13.18
2023-04-19T15:23:51.541Z,16.25
2023-04-19T15:26:18.081Z,14.57
2023-04-19T15:28:44.648Z,15.32
2023-04-19T15:31:11.292Z,12.15
2023-04-19T15:33:37.871Z,10.98
2023-04-19T15:36:04.829Z,11.73
2023-04-19T15:38:32.364Z,12.35
2023-04-19T15:40:59.736Z,10.77
2023-04-19T15:43:26.227Z,11.15
2023-04-19T15:45:52.947Z,11.13
2023-04-19T15:48:22.990Z,12.30
2023-04-19T15:50:49.761Z,11.07
2023-04-19T15:53:16.343Z,11.55
2023-04-19T15:55:42.941Z,10.85
2023-04-19T15:58:09.512Z,11.10
2023-04-19T16:00:36.051Z,10.05
2023-04-19T16:03:02.728Z,10.05
2023-04-19T16:05:29.346Z,8.32
2023-04-19T16:08:06.283Z,11.02
2023-04-19T16:10:33.029Z,9.77
2023-04-19T16:13:00.484Z,10.70
2023-04-19T16:15:27.805Z,9.63
2023-04-19T16:17:54.509Z,9.88
2023-04-19T16:20:21.030Z,11.88
2023-04-19T16:22:48.072Z,10.50
2023-04-19T16:25:16.009Z,10.95
2023-04-19T16:27:44.101Z,9.57
2023-04-19T16:30:11.715Z,11.73
2023-04-19T16:32:38.418Z,10.07
2023-04-19T16:35:05.764Z,9.85
2023-04-19T16:37:33.043Z,13.68
2023-04-19T16:40:00.777Z,10.88
2023-04-19T16:42:27.269Z,13.43
2023-04-19T16:44:53.730Z,12.50
2023-04-19T16:47:21.795Z,9.63
2023-04-19T16:49:50.348Z,9.43
2023-04-19T16:52:17.314Z,14.55
2023-04-19T16:54:44.671Z,9.65
2023-04-19T16:57:11.526Z,9.40
2023-04-19T16:59:37.956Z,9.55
2023-04-19T17:02:07.377Z,6.55
2023-04-19T17:04:34.336Z,6.70
2023-04-19T17:07:01.114Z,4.00
2023-04-19T17:09:27.866Z,6.68
2023-04-19T17:11:55.068Z,4.68
2023-04-19T17:14:21.691Z,3.80
2023-04-19T17:16:48.285Z,3.50
2023-04-19T17:19:15.464Z,3.55
2023-04-19T17:21:42.376Z,4.07
2023-04-19T17:24:09.032Z,2.30
2023-04-19T17:26:35.746Z,4.50
2023-04-19T17:29:02.545Z,4.38
2023-04-19T17:31:28.993Z,4.95
2023-04-19T17:33:55.840Z,3.85
2023-04-19T17:36:22.250Z,4.40
2023-04-19T17:38:48.666Z,3.60
2023-04-19T17:41:17.949Z,2.42
2023-04-19T17:43:45.612Z,4.32
2023-04-19T17:46:12.508Z,6.97
2023-04-19T17:48:39.102Z,5.53
2023-04-19T17:51:07.285Z,7.30
2023-04-19T17:53:33.877Z,4.40
2023-04-19T17:56:00.401Z,7.22
2023-04-19T17:58:26.804Z,1.92
2023-04-19T18:00:53.235Z,4.80
2023-04-19T18:03:19.785Z,3.83
2023-04-19T18:05:46.276Z,4.90
2023-04-19T18:08:13.485Z,3.38
2023-04-19T18:10:40.011Z,16.70
2023-04-19T18:13:06.488Z,4.57
2023-04-19T18:15:32.897Z,3.90
2023-04-19T18:17:59.376Z,5.43
2023-04-19T18:20:26.366Z,3.85
2023-04-19T18:22:53.325Z,4.80
2023-04-19T18:25:19.927Z,3.90
2023-04-19T18:27:46.399Z,4.85
2023-04-19T18:30:13.173Z,6.07
2023-04-19T18:32:39.630Z,5.15
2023-04-19T18:35:09.710Z,5.93
2023-04-19T18:37:36.222Z,3.97
2023-04-19T18:40:05.351Z,3.80
2023-04-19T18:42:31.802Z,4.35
2023-04-19T18:44:58.276Z,5.03
2023-04-19T18:47:27.762Z,4.13
2023-04-19T18:50:04.357Z,3.42
2023-04-19T18:52:32.937Z,4.32
2023-04-19T18:54:59.531Z,3.42
2023-04-19T18:57:27.396Z,3.05
2023-04-19T18:59:56.036Z,5.75
2023-04-19T19:02:22.602Z,5.45
2023-04-19T19:04:57.038Z,5.72
2023-04-19T19:07:36.375Z,3.80
2023-04-19T19:10:17.149Z,3.70
2023-04-19T19:15:12.341Z,3.67
2023-04-19T19:17:38.907Z,4.40
2023-04-19T19:20:06.697Z,3.03
2023-04-19T19:22:34.107Z,4.47
2023-04-19T19:25:01.082Z,3.92
2023-04-19T19:27:27.699Z,3.70
2023-04-19T19:29:54.309Z,5.00
2023-04-19T19:32:20.889Z,4.78
2023-04-19T19:37:17.523Z,4.00
2023-04-19T19:39:45.602Z,3.95
2023-04-19T19:42:16.391Z,4.22
2023-04-19T19:44:43.220Z,4.47
2023-04-19T19:47:10.734Z,5.82
2023-04-19T19:49:51.975Z,6.80
2023-04-19T19:52:27.090Z,4.35
2023-04-19T19:54:53.591Z,5.30
2023-04-19T19:58:10.323Z,5.15
2023-04-19T20:00:31.815Z,4.05
2023-04-19T20:02:58.588Z,5.00
2023-04-19T20:05:25.968Z,5.82
2023-04-19T20:08:02.049Z,6.38
2023-04-19T20:10:31.780Z,8.25
2023-04-19T20:12:58.422Z,4.85
2023-04-19T20:15:24.918Z,4.22
2023-04-19T20:17:51.428Z,5.13
2023-04-19T20:20:18.012Z,5.93
2023-04-19T20:22:45.351Z,6.43
2023-04-19T20:25:13.076Z,6.10
2023-04-19T20:27:39.557Z,4.88
2023-04-19T20:30:08.048Z,4.88
2023-04-19T20:32:36.301Z,5.00
2023-04-19T20:35:08.289Z,7.28
2023-04-19T20:37:37.664Z,4.93
2023-04-19T20:40:07.811Z,8.75
2023-04-19T20:42:34.237Z,5.45
2023-04-19T20:45:00.738Z,6.57
2023-04-19T20:47:27.184Z,5.65
2023-04-19T20:49:53.655Z,7.45
2023-04-19T20:52:20.640Z,6.78
2023-04-19T20:54:47.056Z,7.25
2023-04-19T20:57:14.719Z,7.45
2023-04-19T20:59:41.348Z,6.25
2023-04-19T21:02:08.194Z,7.10
2023-04-19T21:04:35.007Z,7.75
2023-04-19T21:07:01.838Z,7.07
2023-04-19T21:09:28.384Z,7.15
2023-04-19T21:11:55.038Z,8.75
2023-04-19T21:14:21.533Z,7.63
2023-04-19T21:16:47.927Z,6.07
2023-04-19T21:19:14.487Z,7.78
2023-04-19T21:21:41.176Z,8.45
2023-04-19T21:24:08.130Z,8.07
2023-04-19T21:26:34.575Z,8.45
2023-04-19T21:29:01.055Z,8.75
2023-04-19T21:31:27.504Z,6.57
2023-04-19T21:33:54.092Z,9.18
2023-04-19T21:36:20.578Z,8.02
2023-04-19T21:38:47.190Z,10.57
2023-04-19T21:41:13.682Z,8.52
2023-04-19T21:43:40.197Z,9.43
2023-04-19T21:46:06.796Z,7.50
2023-04-19T21:48:33.370Z,7.13
2023-04-19T21:51:00.634Z,6.70
2023-04-19T21:53:27.243Z,6.47
2023-04-19T21:55:53.716Z,6.95
2023-04-19T21:58:20.155Z,8.63
2023-04-19T22:00:48.009Z,7.80
2023-04-19T22:03:14.845Z,9.65
2023-04-19T22:05:41.333Z,7.63
2023-04-19T22:08:07.865Z,6.32
2023-04-19T22:10:34.421Z,5.50
2023-04-19T22:13:03.356Z,9.35
2023-04-19T22:15:29.952Z,6.55
2023-04-19T22:18:02.872Z,7.43
2023-04-19T22:20:31.905Z,7.50
2023-04-19T22:22:58.369Z,6.30
2023-04-19T22:25:24.787Z,5.53
2023-04-19T22:27:51.279Z,7.00
2023-04-19T22:30:17.750Z,9.48
2023-04-19T22:32:44.300Z,6.07
2023-04-19T22:35:10.882Z,6.55
2023-04-19T22:37:37.337Z,10.00
2023-04-19T22:40:06.890Z,6.03
2023-04-19T22:42:33.417Z,6.78
2023-04-19T22:44:59.884Z,6.53
2023-04-19T22:47:26.469Z,6.93
2023-04-19T22:49:54.078Z,8.30
2023-04-19T22:52:20.648Z,6.55
2023-04-19T22:54:47.049Z,8.05
2023-04-19T22:57:13.617Z,11.98
2023-04-19T22:59:40.253Z,6.38
2023-04-19T23:02:06.772Z,10.57
2023-04-19T23:04:35.228Z,6.80
2023-04-19T23:07:02.914Z,6.75
2023-04-19T23:09:29.927Z,7.05
2023-04-19T23:11:58.465Z,8.65
2023-04-19T23:14:25.042Z,6.55
2023-04-19T23:16:54.668Z,6.75
2023-04-19T23:19:22.730Z,8.02
2023-04-19T23:21:50.289Z,8.00
2023-04-19T23:24:17.596Z,7.15
2023-04-19T23:26:44.158Z,5.38
2023-04-19T23:29:10.789Z,7.60
2023-04-19T23:31:37.352Z,10.27
2023-04-19T23:34:03.802Z,6.50
2023-04-19T23:36:31.122Z,8.23
2023-04-19T23:38:57.620Z,7.50
2023-04-19T23:41:24.041Z,5.82
2023-04-19T23:43:50.454Z,7.57
2023-04-19T23:46:16.959Z,7.65
2023-04-19T23:48:43.460Z,6.30
2023-04-19T23:51:09.891Z,7.22
2023-04-19T23:53:38.468Z,8.38
2023-04-19T23:56:05.309Z,7.13
2023-04-19T23:58:31.746Z,6.38
